createdAt,value
2018-07-12T00:00:37.194Z,5.80
2018-07-12T00:05:19.000Z,6.10
2018-07-12T00:10:01.915Z,5.73
2018-07-12T00:14:43.685Z,5.30
2018-07-12T00:19:26.642Z,5.47
2018-07-12T00:24:08.387Z,5.63
2018-07-12T00:28:53.810Z,5.47
2018-07-12T00:33:35.717Z,5.40
2018-07-12T00:38:21.023Z,5.57
2018-07-12T00:43:02.866Z,5.20
2018-07-12T00:47:45.006Z,4.97
2018-07-12T00:52:26.925Z,5.07
2018-07-12T00:57:13.467Z,5.63
2018-07-12T01:01:55.361Z,5.50
2018-07-12T01:06:37.210Z,5.23
2018-07-12T01:11:20.189Z,4.80
2018-07-12T01:16:02.032Z,5.60
2018-07-12T01:20:47.468Z,5.00
2018-07-12T01:25:29.338Z,4.90
2018-07-12T01:30:14.329Z,5.43
2018-07-12T01:34:56.094Z,5.10
2018-07-12T01:39:43.639Z,4.90
2018-07-12T01:44:25.470Z,5.23
2018-07-12T01:49:07.597Z,5.57
2018-07-12T01:53:49.472Z,5.53
2018-07-12T01:58:34.485Z,5.73
2018-07-12T02:03:16.804Z,5.57
2018-07-12T02:08:01.610Z,5.23
2018-07-12T02:12:43.576Z,5.67
2018-07-12T02:17:28.825Z,6.00
2018-07-12T02:22:10.748Z,5.67
2018-07-12T02:26:53.694Z,5.30
2018-07-12T02:31:35.530Z,5.93
2018-07-12T02:36:17.595Z,5.10
2018-07-12T02:41:00.558Z,5.77
2018-07-12T02:45:42.386Z,6.07
2018-07-12T02:50:25.334Z,7.03
2018-07-12T02:55:07.178Z,6.23
2018-07-12T02:59:52.946Z,5.63
2018-07-12T03:04:34.759Z,7.30
2018-07-12T03:09:16.599Z,7.50
2018-07-12T03:13:58.424Z,7.97
2018-07-12T03:18:40.534Z,9.77
2018-07-12T03:23:22.307Z,10.97
2018-07-12T03:28:05.115Z,10.73
2018-07-12T03:32:47.046Z,9.90
2018-07-12T03:37:32.081Z,8.50
2018-07-12T03:42:13.942Z,8.83
2018-07-12T03:46:58.873Z,7.67
2018-07-12T03:51:40.666Z,5.90
2018-07-12T03:56:22.534Z,5.73
2018-07-12T04:01:04.295Z,9.03
2018-07-12T04:05:46.214Z,11.50
2018-07-12T04:10:31.821Z,10.50
2018-07-12T04:15:13.583Z,9.07
2018-07-12T04:19:56.699Z,11.50
2018-07-12T04:24:38.536Z,11.70
2018-07-12T04:29:20.511Z,9.73
2018-07-12T04:34:02.404Z,9.63
2018-07-12T04:38:47.633Z,13.23
2018-07-12T04:43:29.550Z,19.67
2018-07-12T04:48:14.610Z,20.37
2018-07-12T04:52:56.473Z,21.07
2018-07-12T04:57:41.504Z,17.27
2018-07-12T05:02:23.305Z,19.60
2018-07-12T05:07:08.430Z,24.50
2018-07-12T05:11:50.243Z,19.30
2018-07-12T05:16:33.156Z,24.03
2018-07-12T05:21:15.042Z,27.17
2018-07-12T05:25:56.888Z,33.63
2018-07-12T05:30:39.055Z,32.50
2018-07-12T05:35:20.830Z,26.60
2018-07-12T05:40:08.150Z,23.43
2018-07-12T05:44:51.463Z,21.03
2018-07-12T05:49:38.584Z,18.47
2018-07-12T05:54:22.052Z,5.27
2018-07-12T05:59:08.849Z,5.07
2018-07-12T06:03:52.392Z,4.83
2018-07-12T06:08:37.010Z,5.30
2018-07-12T06:13:20.677Z,5.10
2018-07-12T06:18:05.262Z,5.00
2018-07-12T06:22:50.209Z,4.83
2018-07-12T06:27:34.069Z,5.00
2018-07-12T06:32:17.659Z,4.77
2018-07-12T06:37:04.680Z,4.63
2018-07-12T06:41:48.172Z,4.83
2018-07-12T06:46:36.441Z,4.60
2018-07-12T06:51:19.997Z,4.57
2018-07-12T06:56:03.589Z,4.63
2018-07-12T07:00:47.012Z,5.13
2018-07-12T07:05:30.541Z,4.83
2018-07-12T07:10:15.263Z,4.90
2018-07-12T07:14:58.941Z,5.03
2018-07-12T07:19:43.539Z,5.17
2018-07-12T07:24:27.145Z,5.13
2018-07-12T07:29:10.862Z,5.17
2018-07-12T07:33:54.526Z,4.77
2018-07-12T07:38:41.658Z,4.67
2018-07-12T07:43:25.243Z,4.27
2018-07-12T07:48:08.762Z,4.70
2018-07-12T07:52:52.152Z,4.60
2018-07-12T07:57:35.918Z,4.90
2018-07-12T08:02:19.477Z,3.80
2018-07-12T08:07:06.971Z,4.60
2018-07-12T08:11:51.002Z,4.63
2018-07-12T08:16:37.682Z,4.60
2018-07-12T08:21:21.170Z,4.00
2018-07-12T08:26:08.409Z,4.40
2018-07-12T08:30:53.651Z,4.67
2018-07-12T08:35:37.428Z,4.50
2018-07-12T08:40:22.312Z,4.50
2018-07-12T08:45:05.743Z,4.87
2018-07-12T08:49:49.297Z,3.93
2018-07-12T08:54:32.897Z,4.70
2018-07-12T08:59:16.630Z,3.97
2018-07-12T09:04:00.263Z,4.00
2018-07-12T09:08:44.056Z,3.77
2018-07-12T09:13:28.088Z,4.03
2018-07-12T09:18:12.175Z,4.08
2018-07-12T09:22:55.846Z,4.03
2018-07-12T09:27:40.744Z,4.20
2018-07-12T09:32:24.603Z,3.80
2018-07-12T09:37:08.045Z,3.70
2018-07-12T09:41:51.573Z,3.90
2018-07-12T09:46:36.160Z,4.20
2018-07-12T09:51:19.694Z,3.80
2018-07-12T09:56:06.871Z,3.63
2018-07-12T10:00:55.674Z,3.63
2018-07-12T10:07:48.996Z,4.60
2018-07-12T10:12:36.886Z,3.60
2018-07-12T10:17:25.690Z,3.58
2018-07-12T10:22:10.423Z,3.92
2018-07-12T10:26:55.215Z,3.70
2018-07-12T10:31:38.776Z,3.90
2018-07-12T10:36:22.423Z,4.10
2018-07-12T10:41:05.953Z,3.98
2018-07-12T10:45:52.859Z,3.58
2018-07-12T10:50:37.198Z,3.47
2018-07-12T10:55:20.765Z,3.40
2018-07-12T11:00:10.150Z,4.47
2018-07-12T11:04:53.739Z,4.15
2018-07-12T11:09:40.396Z,3.65
2018-07-12T11:14:23.922Z,3.15
2018-07-12T11:19:07.626Z,3.37
2018-07-12T11:23:51.094Z,3.45
2018-07-12T11:28:38.278Z,3.85
2018-07-12T11:33:48.054Z,4.28
2018-07-12T11:38:37.530Z,4.15
2018-07-12T11:43:21.258Z,3.72
2018-07-12T11:48:06.627Z,3.67
2018-07-12T11:52:51.572Z,3.42
2018-07-12T11:57:36.928Z,3.58
2018-07-12T12:02:21.149Z,3.75
2018-07-12T12:07:05.351Z,3.00
2018-07-12T12:11:49.402Z,3.95
2018-07-12T12:16:33.661Z,4.78
2018-07-12T12:21:17.129Z,3.87
2018-07-12T12:26:01.638Z,3.70
2018-07-12T12:30:45.198Z,3.83
2018-07-12T12:35:32.822Z,3.77
2018-07-12T12:40:16.467Z,3.40
2018-07-12T12:44:59.970Z,4.62
2018-07-12T12:49:47.101Z,3.70
2018-07-12T12:54:30.681Z,5.03
2018-07-12T12:59:17.707Z,3.27
2018-07-12T13:04:01.325Z,3.50
2018-07-12T13:08:45.087Z,3.20
2018-07-12T13:13:28.485Z,3.58
2018-07-12T13:18:12.112Z,3.40
2018-07-12T13:22:55.553Z,3.30
2018-07-12T13:27:39.477Z,4.67
2018-07-12T13:32:22.792Z,3.20
2018-07-12T13:37:06.445Z,4.47
2018-07-12T13:41:50.582Z,4.50
2018-07-12T13:46:35.077Z,5.53
2018-07-12T13:51:18.655Z,3.10
2018-07-12T13:56:02.307Z,5.00
2018-07-12T14:00:45.795Z,4.50
2018-07-12T14:05:30.462Z,3.90
2018-07-12T14:10:13.957Z,5.83
2018-07-12T14:14:57.695Z,6.67
2018-07-12T14:19:41.392Z,4.87
2018-07-12T14:24:24.993Z,4.12
2018-07-12T14:29:08.634Z,4.05
2018-07-12T14:33:52.213Z,4.08
2018-07-12T14:38:35.978Z,4.47
2018-07-12T14:43:19.485Z,4.22
2018-07-12T14:48:03.360Z,5.83
2018-07-12T14:52:46.918Z,5.00
2018-07-12T14:57:30.649Z,5.12
2018-07-12T15:02:14.341Z,6.25
2018-07-12T15:07:02.322Z,6.15
2018-07-12T15:11:45.805Z,5.83
2018-07-12T15:16:33.090Z,5.62
2018-07-12T15:21:16.692Z,6.08
2018-07-12T15:26:04.092Z,6.30
2018-07-12T15:30:47.710Z,7.30
2018-07-12T15:35:32.200Z,6.10
2018-07-12T15:40:15.920Z,6.17
2018-07-12T15:44:59.540Z,5.92
2018-07-12T15:49:43.094Z,6.00
2018-07-12T15:54:26.726Z,5.33
2018-07-12T15:59:13.468Z,5.33
2018-07-12T16:03:57.033Z,5.90
2018-07-12T16:08:41.774Z,5.75
2018-07-12T16:13:25.503Z,6.47
2018-07-12T16:18:08.959Z,5.73
2018-07-12T16:22:52.782Z,6.20
2018-07-12T16:27:36.678Z,6.30
2018-07-12T16:32:20.932Z,5.70
2018-07-12T16:37:09.420Z,6.20
2018-07-12T16:41:53.650Z,10.87
2018-07-12T16:46:38.118Z,10.37
2018-07-12T16:51:21.756Z,8.33
2018-07-12T16:56:08.402Z,6.40
2018-07-12T17:00:52.016Z,7.87
2018-07-12T17:05:38.767Z,6.43
2018-07-12T17:10:22.385Z,6.97
2018-07-12T17:15:06.996Z,5.83
2018-07-12T17:19:50.562Z,6.90
2018-07-12T17:24:34.241Z,6.53
2018-07-12T17:29:17.812Z,6.60
2018-07-12T17:34:01.251Z,5.90
2018-07-12T17:38:46.023Z,5.83
2018-07-12T17:43:29.756Z,5.73
2018-07-12T17:48:13.329Z,6.37
2018-07-12T17:52:56.872Z,6.23
2018-07-12T17:57:40.717Z,6.67
2018-07-12T18:02:24.285Z,5.90
2018-07-12T18:07:49.112Z,6.03
2018-07-12T18:12:49.396Z,6.33
2018-07-12T18:17:37.471Z,5.50
2018-07-12T18:22:21.097Z,5.50
2018-07-12T18:27:04.867Z,6.30
2018-07-12T18:31:48.378Z,6.03
2018-07-12T18:36:33.026Z,5.63
2018-07-12T18:41:16.504Z,5.93
2018-07-12T18:46:01.079Z,6.27
2018-07-12T18:50:44.657Z,5.77
2018-07-12T18:55:31.498Z,5.77
2018-07-12T19:00:14.984Z,5.77
2018-07-12T19:05:02.120Z,6.13
2018-07-12T19:09:45.745Z,6.33
2018-07-12T19:14:29.401Z,6.43
2018-07-12T19:19:12.907Z,5.50
2018-07-12T19:23:56.441Z,5.90
2018-07-12T19:28:40.089Z,5.67
2018-07-12T19:33:23.729Z,5.90
2018-07-12T19:38:08.417Z,5.10
2018-07-12T19:42:52.089Z,5.37
2018-07-12T19:47:39.070Z,5.90
2018-07-12T19:52:22.634Z,5.53
2018-07-12T19:57:10.160Z,5.97
2018-07-12T20:01:53.761Z,5.50
2018-07-12T20:06:40.529Z,5.83
2018-07-12T20:11:24.208Z,5.40
2018-07-12T20:16:11.158Z,6.30
2018-07-12T20:20:54.770Z,5.60
2018-07-12T20:25:42.203Z,5.53
2018-07-12T20:30:25.778Z,5.50
2018-07-12T20:35:10.309Z,5.30
2018-07-12T20:39:53.788Z,5.27
2018-07-12T20:44:40.892Z,4.93
2018-07-12T20:49:24.431Z,5.67
2018-07-12T20:54:08.102Z,4.90
2018-07-12T20:58:51.702Z,5.07
2018-07-12T21:03:35.295Z,5.20
2018-07-12T21:08:19.848Z,5.13
2018-07-12T21:13:03.359Z,4.97
2018-07-12T21:17:50.947Z,5.07
2018-07-12T21:22:34.586Z,5.10
2018-07-12T21:27:18.300Z,5.60
2018-07-12T21:32:01.882Z,5.53
2018-07-12T21:36:45.532Z,5.37
2018-07-12T21:41:29.235Z,6.17
2018-07-12T21:46:16.458Z,5.90
2018-07-12T21:50:59.857Z,6.47
2018-07-12T21:55:44.503Z,5.90
2018-07-12T22:00:30.991Z,6.23
2018-07-12T22:05:17.887Z,6.40
2018-07-12T22:10:01.196Z,6.13
2018-07-12T22:14:48.273Z,6.53
2018-07-12T22:19:31.810Z,6.50
2018-07-12T22:24:18.926Z,6.70
2018-07-12T22:29:02.585Z,5.77
2018-07-12T22:33:46.246Z,5.87
2018-07-12T22:38:29.844Z,5.90
2018-07-12T22:44:42.589Z,6.23
2018-07-12T22:49:26.196Z,6.53
2018-07-12T22:54:13.313Z,6.27
2018-07-12T22:58:56.969Z,6.03
2018-07-12T23:03:40.621Z,6.97
2018-07-12T23:08:24.323Z,6.20
2018-07-12T23:13:07.892Z,6.07
2018-07-12T23:17:52.550Z,6.47
2018-07-12T23:22:36.030Z,6.47
2018-07-12T23:27:20.610Z,6.23
2018-07-12T23:32:04.264Z,6.30
2018-07-12T23:36:51.694Z,6.30
2018-07-12T23:41:35.315Z,6.30
2018-07-12T23:46:22.658Z,6.60
2018-07-12T23:51:06.272Z,5.67
2018-07-12T23:55:53.083Z,7.10
